Lawrence, Kansas
Current Conditions -  °F | °C
As of 1:52 AM on Sunday 26 Oct 2014 (Local Time) from KLWC Reporting Station
Clear Clear  
Wind Chill: 59°   Ceiling: Unl
Heat Index: 59°   Visibility: 8mi
Dew Point: 55°   Wind: 7mph
Humidity: 87%   Direction: 110°ESE
Pressure: 29.96"   Gusts: NA
Location:  38.9718°N, 95.235°W
Report Text: KLWC 260652Z AUTO 11006KT 8SM CLR 15/13 A2996 RMK AO2 SLP141 T01500128
Loading
Personal Weather Stations






























Interactive Weather Map
Tropical Storm Tracking
New forecast layout! Learn more

10-Day Weather Forecast

Advertisements
Track Severe Weather on mobile